Camilla, Texas
Current Conditions -  °F | °C
As of 11:15 AM on Saturday 20 Dec 2014 (Local Time) from K6R3 Reporting Station
Haze Haze  
Wind Chill: 50°   Ceiling: 600
Heat Index: 50°   Visibility: 5mi
Dew Point: 49°   Wind: 3mph
Humidity: 95%   Direction: 30°NNE
Pressure: 30.23"   Gusts: NA
Location:  30.5835°N, 95.1294°W
Report Text: K6R3 201715Z AUTO 03003KT 5SM BR OVC006 10/10 A3023 RMK AO2 T01020095
Loading
Personal Weather Stations






























Interactive Weather Map New forecast layout! Learn more

10-Day Weather Forecast

Advertisements
Track Severe Weather on mobile